Cokato, MN

11:47 AM CDT on August 28, 2014 (GMT -0500)
Cokato | Change Station
CLOSE
Current Station
Personal Weather Station
Location: Cokato, MN
Elevation: 1024 ft
Nearby Weather Stations

Elev 1024 ft 45.07 °N, 94.18 °W | Updated 3 minutes ago

Mostly Cloudy
Mostly Cloudy
71.0 °F
Feels Like 73 °F
N
3.0
Wind Variable Wind from SSE
Gusts 4.0 mph

Today
High -- | Low -- °F
--% Chance of Precip.
Yesterday
High -- | Low -- °F
Precip. -- in
6:33 AM 8:01 PM
Waxing Crescent, 9% visible
Pressure 30.05 in
Visibility 10.0 miles
Clouds Overcast 9500 ft
Heat Index 73 °F
Dew Point 63 °F
Humidity 76%
Rainfall 0.00 in
Snow Depth Not available.
UV 2.6 out of 12
Pollen 7.00 out of 12
Ozone Good
PM2.5 Good
Flu Activity Not available.
METAR KMGG 281633Z AUTO 14005KT 10SM OVC095 21/17 A3005 RMK AO2 T02100168

More Conditions Fewer Conditions

Pressure 30.05 in
Visibility 10.0 miles
Clouds Overcast 9500 ft
Heat Index 73 °F
Dew Point 63 °F
Humidity 76%
Rainfall 0.00 in
Snow Depth Not available.
UV 2.6 out of 12
Pollen 7.00 out of 12
Ozone Good
PM2.5 Good
Flu Activity Not available.
METAR KMGG 281633Z AUTO 14005KT 10SM OVC095 21/17 A3005 RMK AO2 T02100168

More Conditions Fewer Conditions

10-Day Weather Forecast

Almanac

Astronomy

Aug. 28, 2014 Rise Set
Actual Time 6:33 AM CDT 8:01 PM CDT
Civil Twilight 6:03 AM CDT 8:31 PM CDT
Nautical Twilight 5:26 AM CDT 9:08 PM CDT
Astronomical Twilight 4:46 AM CDT 9:48 PM CDT
Moon 9:36 AM CDT 9:14 PM CDT
Length of Visible Light 14h 28m
Length of Day
13h 27m
Tomorrow will be 2m 59s shorter.
Waxing Crescent, 9% of the Moon is Illuminated
Today
Waxing Crescent
Sep 2
First Quarter
Sep 8
Full
Sep 15
Last Quarter
Sep 24
New

Today's Extremes

State Highs State Lows

Community

WunderPhotos

Upload Photos

1,748,013 photos uploaded!

Nearby

Air Quality

  Air Quality AQ Index Pollutant
Yesterday Good
OZONE
Yesterday Good
PM2.5
Current Good
OZONE
Current Good
PM2.5
Thursday Good
OZONE
Thursday Good
PM2.5
Friday Good
OZONE
Friday Good
PM2.5
Saturday Good
PM2.5
Saturday Good
OZONE
Sunday Moderate
OZONE
Sunday Moderate
PM2.5
Monday Good
OZONE
Monday Good
PM2.5

Snow Depth

Station Depth Elevation
No new snow has been reported.

Earthquake Activity

City Distance Mag. Time & Date
No recent earthquake activity has been reported nearby.
Minimum magnitude displayed is 2.5.

Coastal Water Temperatures

Place Temperature
No Stations Reporting

Nearby Weather Stations